KCLI

Clintonville Municipal Airport

Clintonville, Wisconsin, USA
METAR KCLI 190555Z AUTO 21006KT 10SM CLR 01/M03 A2986 RMK AO2 T00101030 10030 20001
Observed Flight Rules
Dec-19 @ 05:55 UTC (16 minutes ago) Visual Flight Rules
Wind Visibility Clouds
210° at 6 knots 10 miles
  • Clear skies
Temperatures Readings
Current 1°C / 34°F
Dewpoint -3°C / 27°F
Humidity 75%
Altimeter 29.86" Hg
Pressure 1011 hPa
Elevation 250
METAR KCLI 190555Z AUTO 21006KT 10SM CLR 01/M03 A2986 RMK AO2 T00101030 10030 20001
Observed Flight Rules
Dec-19 @ 05:55 UTC
(16 minutes ago)
VFR
Wind Visibility
210° at 6 knots 10 miles
Clouds
  • Clear skies
Temperature Dewpoint
1°C / 34°F -3°C / 27°F
Humidity Altimeter Pressure
75% 29.86" Hg 1011 hPa